createdAt,value
2023-03-11T00:00:47.445Z,9.747128
2023-03-11T00:01:47.733Z,9.747277
2023-03-11T00:02:46.680Z,9.747163
2023-03-11T00:03:46.673Z,9.747446
2023-03-11T00:04:46.684Z,9.747437
2023-03-11T00:05:46.715Z,9.747577
2023-03-11T00:06:46.661Z,9.747431
2023-03-11T00:07:46.647Z,9.747515
2023-03-11T00:08:46.658Z,9.747481
2023-03-11T00:09:46.635Z,9.747448
2023-03-11T00:10:46.661Z,9.747506
2023-03-11T00:11:46.627Z,9.747478
2023-03-11T00:12:46.613Z,9.747523
2023-03-11T00:13:46.630Z,9.747523
2023-03-11T00:14:46.599Z,9.747440
2023-03-11T00:15:46.617Z,9.747414
2023-03-11T00:16:47.622Z,9.747656
2023-03-11T00:17:46.705Z,9.747816
2023-03-11T00:18:46.572Z,9.747467
2023-03-11T00:19:46.572Z,9.747475
2023-03-11T00:20:46.583Z,9.747499
2023-03-11T00:21:46.547Z,9.747462
2023-03-11T00:22:46.542Z,9.747542
2023-03-11T00:23:46.538Z,9.747546
2023-03-11T00:24:46.532Z,9.747501
2023-03-11T00:25:46.571Z,9.747826
2023-03-11T00:26:46.512Z,9.747798
2023-03-11T00:27:46.512Z,9.747627
2023-03-11T00:28:46.504Z,9.747627
2023-03-11T00:29:46.501Z,9.747542
2023-03-11T00:30:46.569Z,9.747456
2023-03-11T00:31:46.533Z,9.747438
2023-03-11T00:32:46.480Z,9.747469
2023-03-11T00:33:46.478Z,9.747569
2023-03-11T00:34:46.484Z,9.747618
2023-03-11T00:35:46.468Z,9.747494
2023-03-11T00:36:46.463Z,9.747523
2023-03-11T00:37:46.432Z,9.747493
2023-03-11T00:38:46.521Z,9.747399
2023-03-11T00:39:46.409Z,9.747182
2023-03-11T00:40:46.405Z,9.747198
2023-03-11T00:41:46.422Z,9.747249
2023-03-11T00:42:46.396Z,9.747305
2023-03-11T00:43:46.384Z,9.747237
2023-03-11T00:44:46.374Z,9.747325
2023-03-11T00:45:46.464Z,9.747356
2023-03-11T00:46:46.400Z,9.747417
2023-03-11T00:47:46.394Z,9.747359
2023-03-11T00:48:46.346Z,9.747334
2023-03-11T00:49:46.334Z,9.747322
2023-03-11T00:50:46.376Z,9.747415
2023-03-11T00:51:46.352Z,9.747439
2023-03-11T00:52:46.322Z,9.747531
2023-03-11T00:53:46.341Z,9.747434
2023-03-11T00:54:46.306Z,9.747583
2023-03-11T00:55:46.304Z,9.747478
2023-03-11T00:56:46.318Z,9.747485
2023-03-11T00:57:46.282Z,9.747275
2023-03-11T00:58:46.286Z,9.747393
2023-03-11T00:59:46.307Z,9.747463
2023-03-11T01:00:46.265Z,9.747416
2023-03-11T01:01:46.297Z,9.747439
2023-03-11T01:02:46.245Z,9.747400
2023-03-11T01:03:46.245Z,9.747293
2023-03-11T01:04:46.285Z,9.747315
2023-03-11T01:05:46.225Z,9.747378
2023-03-11T01:06:46.238Z,9.747438
2023-03-11T01:07:46.209Z,9.747521
2023-03-11T01:08:46.199Z,9.747568
2023-03-11T01:09:46.199Z,9.747463
2023-03-11T01:10:46.193Z,9.747442
2023-03-11T01:11:46.258Z,9.747541
2023-03-11T01:12:46.173Z,9.747399
2023-03-11T01:13:46.173Z,9.747440
2023-03-11T01:14:46.163Z,9.747410
2023-03-11T01:15:46.238Z,9.747432
2023-03-11T01:16:46.204Z,9.747472
2023-03-11T01:17:46.171Z,9.747425
2023-03-11T01:18:46.130Z,9.747455
2023-03-11T01:19:46.123Z,9.747606
2023-03-11T01:20:46.138Z,9.747583
2023-03-11T01:21:46.140Z,9.747475
2023-03-11T01:22:46.110Z,9.747464
2023-03-11T01:23:46.105Z,9.747447
2023-03-11T01:24:46.108Z,9.747438
2023-03-11T01:25:46.084Z,9.747508
2023-03-11T01:26:46.100Z,9.747493
2023-03-11T01:27:46.065Z,9.747456
2023-03-11T01:28:46.062Z,9.747555
2023-03-11T01:29:46.053Z,9.747472
2023-03-11T01:30:46.090Z,9.747475
2023-03-11T01:31:46.060Z,9.747462
2023-03-11T01:32:46.095Z,9.747558
2023-03-11T01:33:46.067Z,9.747421
2023-03-11T01:34:46.014Z,9.747419
2023-03-11T01:35:46.063Z,9.747437
2023-03-11T01:36:46.027Z,9.747491
2023-03-11T01:37:45.990Z,9.747495
2023-03-11T01:38:45.985Z,9.747334
2023-03-11T01:39:45.980Z,9.747394
2023-03-11T01:40:45.970Z,9.747416
2023-03-11T01:41:45.990Z,9.747465
2023-03-11T01:42:45.957Z,9.747481
2023-03-11T01:43:45.973Z,9.747450
2023-03-11T01:44:45.935Z,9.747436
2023-03-11T01:45:45.923Z,9.747427
2023-03-11T01:46:46.006Z,9.747395
2023-03-11T01:47:45.912Z,9.747462
2023-03-11T01:48:45.906Z,9.747449
2023-03-11T01:49:45.905Z,9.747368
2023-03-11T01:50:45.897Z,9.747557
2023-03-11T01:51:45.919Z,9.747484
2023-03-11T01:52:46.877Z,9.747623
2023-03-11T01:53:45.865Z,9.747649
2023-03-11T01:54:45.858Z,9.747487
2023-03-11T01:55:45.850Z,9.747492
2023-03-11T01:56:45.841Z,9.747646
2023-03-11T01:57:45.871Z,9.747554
2023-03-11T01:58:45.807Z,9.747472
2023-03-11T01:59:46.820Z,9.747464
2023-03-11T02:00:45.820Z,9.747450
2023-03-11T02:01:45.902Z,9.747412
2023-03-11T02:02:45.824Z,9.747312
2023-03-11T02:03:45.784Z,9.747398
2023-03-11T02:04:45.806Z,9.747429
2023-03-11T02:05:45.833Z,9.747436
2023-03-11T02:06:45.767Z,9.747437
2023-03-11T02:07:45.788Z,9.747479
2023-03-11T02:08:45.752Z,9.747459
2023-03-11T02:09:45.742Z,9.747483
2023-03-11T02:10:45.745Z,9.747443
2023-03-11T02:11:45.732Z,9.747425
2023-03-11T02:12:45.744Z,9.747212
2023-03-11T02:13:45.721Z,9.747451
2023-03-11T02:14:45.712Z,9.747485
2023-03-11T02:15:45.733Z,9.747480
2023-03-11T02:16:45.708Z,9.747425
2023-03-11T02:17:45.712Z,9.747471
2023-03-11T02:18:45.681Z,9.747489
2023-03-11T02:19:45.675Z,9.747450
2023-03-11T02:20:45.662Z,9.747341
2023-03-11T02:21:45.660Z,9.747417
2023-03-11T02:22:45.744Z,9.747364
2023-03-11T02:23:45.642Z,9.747291
2023-03-11T02:24:45.652Z,9.747334
2023-03-11T02:25:45.630Z,9.747342
2023-03-11T02:26:45.625Z,9.747219
2023-03-11T02:27:45.644Z,9.747340
2023-03-11T02:28:45.620Z,9.747401
2023-03-11T02:29:45.605Z,9.747388
2023-03-11T02:30:45.607Z,9.747524
2023-03-11T02:31:45.617Z,9.747368
2023-03-11T02:32:45.677Z,9.747224
2023-03-11T02:33:45.577Z,9.747271
2023-03-11T02:34:45.565Z,9.747316
2023-03-11T02:35:45.562Z,9.747313
2023-03-11T02:36:45.553Z,9.747353
2023-03-11T02:37:45.562Z,9.747385
2023-03-11T02:38:46.549Z,9.747321
2023-03-11T02:39:45.528Z,9.747521
2023-03-11T02:40:45.522Z,9.747525
2023-03-11T02:41:45.529Z,9.747250
2023-03-11T02:42:45.532Z,9.747501
2023-03-11T02:43:45.494Z,9.747490
2023-03-11T02:44:45.518Z,9.747500
2023-03-11T02:45:45.488Z,9.747441
2023-03-11T02:46:45.499Z,9.747531
2023-03-11T02:47:45.500Z,9.747511
2023-03-11T02:48:45.463Z,9.747385
2023-03-11T02:49:45.454Z,9.747420
2023-03-11T02:50:45.441Z,9.747347
2023-03-11T02:51:45.436Z,9.747390
2023-03-11T02:52:45.463Z,9.747380
2023-03-11T02:53:45.426Z,9.747421
2023-03-11T02:54:45.418Z,9.747436
2023-03-11T02:55:45.428Z,9.747372
2023-03-11T02:56:45.391Z,9.747366
2023-03-11T02:57:45.428Z,9.747484
2023-03-11T02:58:45.408Z,9.747501
2023-03-11T02:59:45.388Z,9.747532
2023-03-11T03:00:45.413Z,9.747268
2023-03-11T03:01:45.367Z,9.747430
2023-03-11T03:02:45.396Z,9.747498
2023-03-11T03:03:45.427Z,9.747431
2023-03-11T03:04:45.344Z,9.747522
2023-03-11T03:05:45.339Z,9.747575
2023-03-11T03:06:45.336Z,9.747539
2023-03-11T03:07:45.347Z,9.747454
2023-03-11T03:08:45.358Z,9.747519
2023-03-11T03:09:45.305Z,9.747496
2023-03-11T03:10:45.287Z,9.747527
2023-03-11T03:11:45.306Z,9.747471
2023-03-11T03:12:45.382Z,9.747577
2023-03-11T03:13:45.273Z,9.747530
2023-03-11T03:14:45.264Z,9.747356
2023-03-11T03:15:45.255Z,9.747617
2023-03-11T03:16:45.401Z,9.747569
2023-03-11T03:17:45.261Z,9.747564
2023-03-11T03:18:45.277Z,9.747420
2023-03-11T03:19:45.213Z,9.747617
2023-03-11T03:20:46.210Z,9.747500
2023-03-11T03:21:45.209Z,9.747523
2023-03-11T03:22:45.200Z,9.747447
2023-03-11T03:23:45.218Z,9.747421
2023-03-11T03:24:45.289Z,9.747367
2023-03-11T03:25:45.188Z,9.747414
2023-03-11T03:26:45.165Z,9.747544
2023-03-11T03:27:45.168Z,9.747573
2023-03-11T03:28:45.179Z,9.747557
2023-03-11T03:29:45.152Z,9.747476
2023-03-11T03:30:45.142Z,9.747513
2023-03-11T03:31:45.154Z,9.747402
2023-03-11T03:32:45.161Z,9.747395
2023-03-11T03:33:45.165Z,9.747269
2023-03-11T03:34:45.109Z,9.747522
2023-03-11T03:35:45.142Z,9.747449
2023-03-11T03:36:45.120Z,9.747349
2023-03-11T03:37:45.104Z,9.747324
2023-03-11T03:38:45.113Z,9.747319
2023-03-11T03:39:45.068Z,9.747430
2023-03-11T03:40:45.066Z,9.747407
2023-03-11T03:41:45.053Z,9.747405
2023-03-11T03:42:45.047Z,9.747403
2023-03-11T03:43:45.067Z,9.747449
2023-03-11T03:44:45.050Z,9.747511
2023-03-11T03:45:45.099Z,9.747484
2023-03-11T03:46:45.017Z,9.747419
2023-03-11T03:47:45.009Z,9.747403
2023-03-11T03:48:45.030Z,9.747387
2023-03-11T03:49:45.027Z,9.747390
2023-03-11T03:50:45.007Z,9.747397
2023-03-11T03:51:45.974Z,9.747398
2023-03-11T03:52:44.999Z,9.747422
2023-03-11T03:53:44.996Z,9.747374
2023-03-11T03:54:44.973Z,9.747417
2023-03-11T03:55:44.964Z,9.747433
2023-03-11T03:56:44.943Z,9.747403
2023-03-11T03:57:44.956Z,9.747328
2023-03-11T03:58:44.952Z,9.747375
2023-03-11T03:59:44.928Z,9.747432
2023-03-11T04:00:44.948Z,9.747396
2023-03-11T04:01:44.921Z,9.747411
2023-03-11T04:02:44.908Z,9.747430
2023-03-11T04:03:44.968Z,9.747395
2023-03-11T04:04:44.906Z,9.747362
2023-03-11T04:05:44.886Z,9.747253
2023-03-11T04:06:44.892Z,9.747348
2023-03-11T04:07:44.869Z,9.747409
2023-03-11T04:08:44.892Z,9.747365
2023-03-11T04:09:44.851Z,9.747463
2023-03-11T04:10:44.843Z,9.747287
2023-03-11T04:11:44.861Z,9.747320
2023-03-11T04:12:44.825Z,9.747276
2023-03-11T04:13:44.889Z,9.747494
2023-03-11T04:14:44.835Z,9.747373
2023-03-11T04:15:44.806Z,9.747488
2023-03-11T04:16:44.854Z,9.747474
2023-03-11T04:17:44.793Z,9.747442
2023-03-11T04:18:44.810Z,9.747255
2023-03-11T04:19:44.770Z,9.747170
2023-03-11T04:20:44.770Z,9.747376
2023-03-11T04:21:44.753Z,9.747294
2023-03-11T04:22:44.746Z,9.747350
2023-03-11T04:23:44.765Z,9.747367
2023-03-11T04:24:44.734Z,9.747460
2023-03-11T04:25:44.734Z,9.747262
2023-03-11T04:26:44.739Z,9.747240
2023-03-11T04:27:44.715Z,9.747263
2023-03-11T04:28:44.728Z,9.747344
2023-03-11T04:29:44.694Z,9.747373
2023-03-11T04:30:44.733Z,9.747455
2023-03-11T04:31:44.684Z,9.747439
2023-03-11T04:32:44.698Z,9.747413
2023-03-11T04:33:44.696Z,9.747345
2023-03-11T04:34:44.655Z,9.747272
2023-03-11T04:35:44.680Z,9.747424
2023-03-11T04:36:44.645Z,9.747378
2023-03-11T04:37:44.639Z,9.747357
2023-03-11T04:38:44.652Z,9.747487
2023-03-11T04:39:44.620Z,9.747319
2023-03-11T04:40:44.623Z,9.747343
2023-03-11T04:41:44.612Z,9.747442
2023-03-11T04:42:44.603Z,9.747444
2023-03-11T04:43:44.613Z,9.747424
2023-03-11T04:44:44.587Z,9.747409
2023-03-11T04:45:44.570Z,9.747220
2023-03-11T04:46:44.565Z,9.747390
2023-03-11T04:47:44.568Z,9.747706
2023-03-11T04:48:44.591Z,9.747541
2023-03-11T04:49:44.579Z,9.747410
2023-03-11T04:50:44.555Z,9.747425
2023-03-11T04:51:44.552Z,9.747343
2023-03-11T04:52:45.527Z,9.747257
2023-03-11T04:53:44.564Z,9.747433
2023-03-11T04:54:44.548Z,9.747218
2023-03-11T04:55:44.497Z,9.747237
2023-03-11T04:56:44.502Z,9.747355
2023-03-11T04:57:44.482Z,9.747303
2023-03-11T04:58:44.503Z,9.747330
2023-03-11T04:59:44.481Z,9.747417
2023-03-11T05:00:44.474Z,9.747439
2023-03-11T05:01:44.516Z,9.747417
2023-03-11T05:02:44.449Z,9.747498
2023-03-11T05:03:44.475Z,9.747288
2023-03-11T05:04:44.465Z,9.747342
2023-03-11T05:05:44.484Z,9.747423
2023-03-11T05:06:44.422Z,9.747409
2023-03-11T05:07:44.407Z,9.747433
2023-03-11T05:08:44.433Z,9.747198
2023-03-11T05:09:44.390Z,9.747491
2023-03-11T05:10:44.387Z,9.747578
2023-03-11T05:11:44.378Z,9.747386
2023-03-11T05:12:44.371Z,9.747371
2023-03-11T05:13:44.421Z,9.747345
2023-03-11T05:14:44.353Z,9.747356
2023-03-11T05:15:44.375Z,9.747301
2023-03-11T05:16:44.344Z,9.747223
2023-03-11T05:17:44.336Z,9.747384
2023-03-11T05:18:44.353Z,9.747280
2023-03-11T05:19:44.318Z,9.747208
2023-03-11T05:20:44.310Z,9.747179
2023-03-11T05:21:44.304Z,9.747458
2023-03-11T05:22:44.297Z,9.747396
2023-03-11T05:23:44.313Z,9.747299
2023-03-11T05:24:44.285Z,9.747277
2023-03-11T05:25:44.275Z,9.747429
2023-03-11T05:26:44.658Z,9.747307
2023-03-11T05:27:44.270Z,9.747323
2023-03-11T05:28:44.288Z,9.747408
2023-03-11T05:29:44.242Z,9.747183
2023-03-11T05:30:44.235Z,9.747102
2023-03-11T05:31:44.220Z,9.747174
2023-03-11T05:32:45.252Z,9.747283
2023-03-11T05:33:44.238Z,9.747440
2023-03-11T05:34:44.214Z,9.747293
2023-03-11T05:35:44.262Z,9.747331
2023-03-11T05:36:44.188Z,9.747537
2023-03-11T05:37:44.189Z,9.747363
2023-03-11T05:38:44.217Z,9.747323
2023-03-11T05:39:44.183Z,9.747448
2023-03-11T05:40:44.172Z,9.747406
2023-03-11T05:41:44.151Z,9.747492
2023-03-11T05:42:44.143Z,9.747348
2023-03-11T05:43:44.172Z,9.747280
2023-03-11T05:44:44.133Z,9.747356
2023-03-11T05:45:44.125Z,9.747414
2023-03-11T05:46:44.217Z,9.747523
2023-03-11T05:47:44.113Z,9.747226
2023-03-11T05:48:44.137Z,9.747360
2023-03-11T05:49:44.112Z,9.747351
2023-03-11T05:50:44.082Z,9.747357
2023-03-11T05:51:44.081Z,9.747458
2023-03-11T05:52:44.079Z,9.747324
2023-03-11T05:53:44.070Z,9.747331
2023-03-11T05:54:44.094Z,9.747297
2023-03-11T05:55:44.061Z,9.747212
2023-03-11T05:56:44.046Z,9.747126
2023-03-11T05:57:44.044Z,9.746182
2023-03-11T05:58:44.027Z,9.747068
2023-03-11T05:59:44.067Z,9.747459
2023-03-11T06:00:44.020Z,9.747000
2023-03-11T06:01:44.018Z,9.746956
2023-03-11T06:02:44.012Z,9.747040
2023-03-11T06:03:44.085Z,9.746645
2023-03-11T06:04:44.065Z,9.746880
2023-03-11T06:05:43.973Z,9.747367
2023-03-11T06:06:43.961Z,9.747905
2023-03-11T06:07:43.958Z,9.747436
2023-03-11T06:08:43.950Z,9.747188
2023-03-11T06:09:43.972Z,9.746871
2023-03-11T06:10:43.941Z,9.747108
2023-03-11T06:11:43.935Z,9.747105
2023-03-11T06:12:43.931Z,9.747276
2023-03-11T06:13:43.911Z,9.746514
2023-03-11T06:14:43.936Z,9.746925
2023-03-11T06:15:43.898Z,9.747100
2023-03-11T06:16:43.900Z,9.747030
2023-03-11T06:17:43.883Z,9.747267
2023-03-11T06:18:43.885Z,9.747267
2023-03-11T06:19:43.893Z,9.747267
2023-03-11T06:20:43.858Z,9.747398
2023-03-11T06:21:43.860Z,9.747196
2023-03-11T06:22:43.847Z,9.747074
2023-03-11T06:23:44.835Z,9.747216
2023-03-11T06:24:43.855Z,9.746908
2023-03-11T06:25:43.824Z,9.747334
2023-03-11T06:26:43.822Z,9.747554
2023-03-11T06:27:43.806Z,9.747450
2023-03-11T06:28:43.795Z,9.747378
2023-03-11T06:29:43.829Z,9.747409
2023-03-11T06:30:43.780Z,9.747714
2023-03-11T06:31:43.819Z,9.747791
2023-03-11T06:32:43.919Z,9.747365
2023-03-11T06:33:43.765Z,9.747247
2023-03-11T06:34:43.767Z,9.747644
2023-03-11T06:35:43.834Z,9.747697
2023-03-11T06:36:43.744Z,9.747519
2023-03-11T06:37:43.725Z,9.748314
2023-03-11T06:38:43.722Z,9.747724
2023-03-11T06:39:43.738Z,9.747414
2023-03-11T06:40:43.713Z,9.747862
2023-03-11T06:41:43.692Z,9.747387
2023-03-11T06:42:43.684Z,9.746758
2023-03-11T06:43:43.728Z,9.747394
2023-03-11T06:44:43.699Z,9.746681
2023-03-11T06:45:43.689Z,9.746956
2023-03-11T06:46:43.654Z,9.747231
2023-03-11T06:47:43.661Z,9.746957
2023-03-11T06:48:43.650Z,9.747192
2023-03-11T06:49:43.662Z,9.747270
2023-03-11T06:50:43.631Z,9.747224
2023-03-11T06:51:43.628Z,9.747130
2023-03-11T06:52:43.622Z,9.747203
2023-03-11T06:53:43.604Z,9.747143
2023-03-11T06:54:43.630Z,9.747259
2023-03-11T06:55:43.600Z,9.747306
2023-03-11T06:56:43.585Z,9.747098
2023-03-11T06:57:43.578Z,9.747366
2023-03-11T06:58:43.587Z,9.747142
2023-03-11T06:59:43.585Z,9.747409
2023-03-11T07:00:43.617Z,9.746853
2023-03-11T07:01:43.548Z,9.747105
2023-03-11T07:02:43.543Z,9.747429
2023-03-11T07:03:43.565Z,9.747090
2023-03-11T07:04:43.548Z,9.747209
2023-03-11T07:05:43.520Z,9.747119
2023-03-11T07:06:43.513Z,9.747252
2023-03-11T07:07:43.506Z,9.747144
2023-03-11T07:08:43.509Z,9.747269
2023-03-11T07:09:43.517Z,9.747278
2023-03-11T07:10:43.483Z,9.747077
2023-03-11T07:11:43.487Z,9.747165
2023-03-11T07:12:43.484Z,9.747081
2023-03-11T07:13:43.470Z,9.747072
2023-03-11T07:14:43.531Z,9.746932
2023-03-11T07:15:43.449Z,9.746906
2023-03-11T07:16:43.490Z,9.747486
2023-03-11T07:17:43.419Z,9.746971
2023-03-11T07:18:43.416Z,9.747337
2023-03-11T07:19:43.441Z,9.747120
2023-03-11T07:20:43.408Z,9.747148
2023-03-11T07:21:43.394Z,9.747098
2023-03-11T07:22:43.396Z,9.747197
2023-03-11T07:23:43.407Z,9.746906
2023-03-11T07:24:43.399Z,9.746905
2023-03-11T07:25:43.370Z,9.747135
2023-03-11T07:26:44.610Z,9.747102
2023-03-11T07:27:44.350Z,9.747086
2023-03-11T07:28:43.333Z,9.747319
2023-03-11T07:29:44.363Z,9.747054
2023-03-11T07:30:43.337Z,9.746792
2023-03-11T07:31:43.385Z,9.747139
2023-03-11T07:32:43.375Z,9.747174
2023-03-11T07:33:43.322Z,9.747431
2023-03-11T07:34:43.319Z,9.747491
2023-03-11T07:35:44.354Z,9.747260
2023-03-11T07:36:43.289Z,9.747280
2023-03-11T07:37:43.315Z,9.747331
2023-03-11T07:38:43.282Z,9.747182
2023-03-11T07:39:43.315Z,9.747260
2023-03-11T07:40:43.285Z,9.747108
2023-03-11T07:41:43.259Z,9.747257
2023-03-11T07:42:43.243Z,9.747260
2023-03-11T07:43:43.242Z,9.747285
2023-03-11T07:44:43.257Z,9.747284
2023-03-11T07:45:43.254Z,9.747432
2023-03-11T07:46:43.222Z,9.747285
2023-03-11T07:47:43.210Z,9.747083
2023-03-11T07:48:43.203Z,9.747252
2023-03-11T07:49:43.243Z,9.747276
2023-03-11T07:50:43.199Z,9.747270
2023-03-11T07:51:43.187Z,9.747413
2023-03-11T07:52:43.174Z,9.747439
2023-03-11T07:53:43.168Z,9.747299
2023-03-11T07:54:43.190Z,9.747191
2023-03-11T07:55:43.155Z,9.747165
2023-03-11T07:56:43.130Z,9.747310
2023-03-11T07:57:44.148Z,9.747236
2023-03-11T07:58:45.260Z,9.746615
2023-03-11T07:59:43.130Z,9.746937
2023-03-11T08:00:44.114Z,9.747182
2023-03-11T08:01:43.100Z,9.747334
2023-03-11T08:02:43.131Z,9.747075
2023-03-11T08:03:43.097Z,9.747113
2023-03-11T08:04:43.110Z,9.747177
2023-03-11T08:05:43.068Z,9.747130
2023-03-11T08:06:43.082Z,9.747211
2023-03-11T08:07:43.131Z,9.747262
2023-03-11T08:08:43.039Z,9.747255
2023-03-11T08:09:43.074Z,9.747298
2023-03-11T08:10:43.037Z,9.747250
2023-03-11T08:11:43.033Z,9.747297
2023-03-11T08:12:43.011Z,9.747292
2023-03-11T08:13:43.018Z,9.747429
2023-03-11T08:14:43.026Z,9.747280
2023-03-11T08:15:43.030Z,9.747346
2023-03-11T08:16:42.990Z,9.747453
2023-03-11T08:17:42.980Z,9.747375
2023-03-11T08:18:42.987Z,9.747424
2023-03-11T08:19:42.983Z,9.747476
2023-03-11T08:20:42.954Z,9.747476
2023-03-11T08:21:42.948Z,9.747387
2023-03-11T08:22:55.573Z,9.747391
2023-03-11T08:23:44.933Z,9.747373
2023-03-11T08:24:43.039Z,9.747458
2023-03-11T08:25:42.929Z,9.747469
2023-03-11T08:26:42.919Z,9.747371
2023-03-11T08:27:42.928Z,9.747608
2023-03-11T08:28:42.898Z,9.747524
2023-03-11T08:29:42.931Z,9.747423
2023-03-11T08:30:42.961Z,9.747466
2023-03-11T08:31:42.886Z,9.747475
2023-03-11T08:32:42.906Z,9.747479
2023-03-11T08:33:42.866Z,9.747493
2023-03-11T08:34:42.853Z,9.747424
2023-03-11T08:35:42.908Z,9.747405
2023-03-11T08:36:42.844Z,9.747467
2023-03-11T08:37:42.835Z,9.747346
2023-03-11T08:38:42.860Z,9.747387
2023-03-11T08:39:42.811Z,9.747393
2023-03-11T08:40:42.848Z,9.747286
2023-03-11T08:41:42.813Z,9.747320
2023-03-11T08:42:43.788Z,9.747400
2023-03-11T08:43:42.790Z,9.747399
2023-03-11T08:44:42.778Z,9.747384
2023-03-11T08:45:42.855Z,9.747463
2023-03-11T08:46:42.837Z,9.747431
2023-03-11T08:47:42.759Z,9.747335
2023-03-11T08:48:42.749Z,9.747334
2023-03-11T08:49:42.739Z,9.747533
2023-03-11T08:50:53.479Z,9.747561
2023-03-11T08:51:44.730Z,9.747510
2023-03-11T08:52:42.744Z,9.747520
2023-03-11T08:53:42.708Z,9.747460
2023-03-11T08:54:42.699Z,9.747488
2023-03-11T08:55:42.734Z,9.747534
2023-03-11T08:56:42.687Z,9.747434
2023-03-11T08:57:42.690Z,9.747455
2023-03-11T08:58:42.674Z,9.747489
2023-03-11T08:59:42.694Z,9.747513
2023-03-11T09:00:42.698Z,9.747475
2023-03-11T09:01:42.650Z,9.747388
2023-03-11T09:02:42.680Z,9.747452
2023-03-11T09:03:42.644Z,9.747404
2023-03-11T09:04:42.631Z,9.747306
2023-03-11T09:05:42.659Z,9.747269
2023-03-11T09:06:42.623Z,9.747260
2023-03-11T09:07:42.624Z,9.747423
2023-03-11T09:08:42.600Z,9.747534
2023-03-11T09:09:42.615Z,9.747422
2023-03-11T09:10:42.626Z,9.747553
2023-03-11T09:11:42.577Z,9.747532
2023-03-11T09:12:42.574Z,9.747522
2023-03-11T09:13:42.602Z,9.747559
2023-03-11T09:14:42.612Z,9.747448
2023-03-11T09:15:42.588Z,9.747309
2023-03-11T09:16:42.547Z,9.747423
2023-03-11T09:17:44.399Z,9.747421
2023-03-11T09:18:42.585Z,9.747501
2023-03-11T09:19:42.622Z,9.747490
2023-03-11T09:20:42.540Z,9.747438
2023-03-11T09:21:42.554Z,9.747448
2023-03-11T09:22:42.535Z,9.747453
2023-03-11T09:23:44.363Z,9.747467
2023-03-11T09:24:43.483Z,9.747431
2023-03-11T09:25:42.511Z,9.747483
2023-03-11T09:26:42.479Z,9.747478
2023-03-11T09:27:42.481Z,9.747522
2023-03-11T09:28:42.482Z,9.747449
2023-03-11T09:29:42.452Z,9.747443
2023-03-11T09:30:42.463Z,9.747369
2023-03-11T09:31:42.530Z,9.747287
2023-03-11T09:32:42.466Z,9.747371
2023-03-11T09:33:42.449Z,9.747332
2023-03-11T09:34:42.415Z,9.747380
2023-03-11T09:35:42.472Z,9.747306
2023-03-11T09:36:42.385Z,9.747370
2023-03-11T09:37:42.394Z,9.747432
2023-03-11T09:38:42.379Z,9.747386
2023-03-11T09:39:42.372Z,9.747359
2023-03-11T09:40:42.401Z,9.747289
2023-03-11T09:41:55.659Z,9.747493
2023-03-11T09:42:44.356Z,9.747455
2023-03-11T09:43:42.350Z,9.747472
2023-03-11T09:44:42.334Z,9.747291
2023-03-11T09:45:42.350Z,9.747505
2023-03-11T09:46:42.337Z,9.747474
2023-03-11T09:47:42.330Z,9.747476
2023-03-11T09:48:42.312Z,9.747506
2023-03-11T09:49:42.302Z,9.747368
2023-03-11T09:50:42.318Z,9.747428
2023-03-11T09:51:43.289Z,9.747424
2023-03-11T09:52:42.283Z,9.747436
2023-03-11T09:53:42.282Z,9.747712
2023-03-11T09:54:42.264Z,9.747526
2023-03-11T09:55:42.289Z,9.747543
2023-03-11T09:56:44.362Z,9.747569
2023-03-11T09:57:43.234Z,9.747520
2023-03-11T09:58:42.236Z,9.747454
2023-03-11T09:59:42.221Z,9.747465
2023-03-11T10:00:42.252Z,9.747496
2023-03-11T10:01:42.282Z,9.747409
2023-03-11T10:02:42.339Z,9.747406
2023-03-11T10:03:42.183Z,9.747408
2023-03-11T10:04:42.183Z,9.747334
2023-03-11T10:05:42.220Z,9.747402
2023-03-11T10:06:42.173Z,9.747496
2023-03-11T10:07:42.154Z,9.747465
2023-03-11T10:08:42.183Z,9.747461
2023-03-11T10:09:42.152Z,9.747432
2023-03-11T10:10:42.164Z,9.747450
2023-03-11T10:11:42.134Z,9.747492
2023-03-11T10:12:42.138Z,9.747446
2023-03-11T10:13:42.132Z,9.747371
2023-03-11T10:14:42.112Z,9.747363
2023-03-11T10:15:42.144Z,9.747420
2023-03-11T10:16:42.129Z,9.747508
2023-03-11T10:17:42.109Z,9.747310
2023-03-11T10:18:42.073Z,9.747432
2023-03-11T10:19:42.083Z,9.747515
2023-03-11T10:20:42.091Z,9.747508
2023-03-11T10:21:42.069Z,9.747392
2023-03-11T10:22:42.045Z,9.747404
2023-03-11T10:23:42.038Z,9.747417
2023-03-11T10:24:42.043Z,9.747549
2023-03-11T10:25:42.053Z,9.747551
2023-03-11T10:26:42.022Z,9.747508
2023-03-11T10:27:42.130Z,9.747438
2023-03-11T10:28:42.997Z,9.747397
2023-03-11T10:29:42.002Z,9.747318
2023-03-11T10:30:42.026Z,9.747485
2023-03-11T10:31:42.012Z,9.747539
2023-03-11T10:32:41.994Z,9.747448
2023-03-11T10:33:41.998Z,9.747443
2023-03-11T10:34:41.981Z,9.747443
2023-03-11T10:35:42.008Z,9.747474
2023-03-11T10:36:41.942Z,9.747507
2023-03-11T10:37:49.420Z,9.747527
2023-03-11T10:38:43.927Z,9.747569
2023-03-11T10:39:41.920Z,9.747536
2023-03-11T10:40:41.931Z,9.747416
2023-03-11T10:41:41.921Z,9.747394
2023-03-11T10:42:42.894Z,9.747358
2023-03-11T10:43:41.895Z,9.747304
2023-03-11T10:44:41.901Z,9.747351
2023-03-11T10:45:41.993Z,9.747473
2023-03-11T10:46:41.908Z,9.747513
2023-03-11T10:47:41.859Z,9.747532
2023-03-11T10:48:41.850Z,9.747472
2023-03-11T10:49:41.894Z,9.747579
2023-03-11T10:50:41.829Z,9.747617
2023-03-11T10:51:41.856Z,9.747612
2023-03-11T10:52:41.841Z,9.747554
2023-03-11T10:53:41.813Z,9.747394
2023-03-11T10:54:41.798Z,9.747458
2023-03-11T10:55:41.799Z,9.747402
2023-03-11T10:56:41.858Z,9.747501
2023-03-11T10:57:41.832Z,9.747828
2023-03-11T10:58:41.786Z,9.747726
2023-03-11T10:59:41.776Z,9.748022
2023-03-11T11:00:41.767Z,9.747883
2023-03-11T11:01:41.781Z,9.747873
2023-03-11T11:02:43.696Z,9.748091
2023-03-11T11:03:42.741Z,9.747555
2023-03-11T11:04:41.818Z,9.747624
2023-03-11T11:05:41.732Z,9.747696
2023-03-11T11:06:41.744Z,9.747739
2023-03-11T11:07:41.707Z,9.747509
2023-03-11T11:08:41.705Z,9.747320
2023-03-11T11:09:41.693Z,9.747506
2023-03-11T11:10:41.691Z,9.747814
2023-03-11T11:11:41.711Z,9.747683
2023-03-11T11:12:41.675Z,9.747581
2023-03-11T11:13:41.667Z,9.747631
2023-03-11T11:14:41.707Z,9.747592
2023-03-11T11:15:41.697Z,9.747667
2023-03-11T11:16:41.711Z,9.747410
2023-03-11T11:17:41.641Z,9.747743
2023-03-11T11:18:41.643Z,9.747682
2023-03-11T11:19:41.648Z,9.747598
2023-03-11T11:20:41.622Z,9.747725
2023-03-11T11:21:41.991Z,9.747589
2023-03-11T11:22:41.614Z,9.747715
2023-03-11T11:23:41.610Z,9.747821
2023-03-11T11:24:41.593Z,9.747820
2023-03-11T11:25:41.588Z,9.747622
2023-03-11T11:26:42.245Z,9.747727
2023-03-11T11:27:41.588Z,9.747710
2023-03-11T11:28:41.587Z,9.747579
2023-03-11T11:29:41.577Z,9.747593
2023-03-11T11:30:41.635Z,9.747567
2023-03-11T11:31:41.580Z,9.747511
2023-03-11T11:32:41.573Z,9.747586
2023-03-11T11:33:41.532Z,9.747804
2023-03-11T11:34:41.525Z,9.747674
2023-03-11T11:35:41.574Z,9.747662
2023-03-11T11:36:41.540Z,9.747472
2023-03-11T11:37:41.499Z,9.747807
2023-03-11T11:38:41.500Z,9.747555
2023-03-11T11:39:41.531Z,9.747677
2023-03-11T11:40:41.473Z,9.747539
2023-03-11T11:41:41.499Z,9.747611
2023-03-11T11:42:41.506Z,9.747739
2023-03-11T11:43:41.456Z,9.747416
2023-03-11T11:44:41.439Z,9.747545